Time;durP1;ratioP1;P1;durP2;ratioP2;P2;SDS_P1;SDS_P2;PMS_P1;PMS_P2;Temp;Humidity;BMP_temperature;BMP_pressure;BME280_temperature;BME280_humidity;BME280_pressure;Samples;Min_cycle;Max_cycle;Signal;HPM_P1;HPM_P2
2021/08/04 00:01:10;;;;;;;14.83;10.73;;;15.90;99.90;;;;;;5112884;28;20738;-80
2021/08/04 00:03:37;;;;;;;15.73;10.63;;;15.70;99.90;;;;;;5110777;28;20763;-80
2021/08/04 00:06:04;;;;;;;14.27;10.33;;;15.60;99.90;;;;;;5117355;28;20228;-80
2021/08/04 00:08:31;;;;;;;16.27;10.70;;;15.40;99.90;;;;;;5116859;28;20198;-80
2021/08/04 00:11:00;;;;;;;20.53;12.30;;;15.40;99.90;;;;;;5117374;28;20285;-80
2021/08/04 00:13:27;;;;;;;18.43;12.60;;;15.30;99.90;;;;;;5117086;28;20304;-80
2021/08/04 00:15:54;;;;;;;21.03;12.27;;;15.20;99.90;;;;;;5117212;28;20277;-80
2021/08/04 00:18:21;;;;;;;18.63;11.93;;;15.10;99.90;;;;;;5117488;28;20303;-80
2021/08/04 00:20:48;;;;;;;20.97;12.70;;;15.20;99.90;;;;;;5116825;28;20198;-80
2021/08/04 00:23:15;;;;;;;19.40;12.20;;;15.20;99.90;;;;;;5117198;28;20225;-80
2021/08/04 00:25:42;;;;;;;20.13;13.53;;;15.10;99.90;;;;;;5117155;28;20289;-81
2021/08/04 00:28:11;;;;;;;18.83;13.33;;;15.10;99.90;;;;;;5117388;28;20233;-81
2021/08/04 00:30:38;;;;;;;27.77;14.40;;;15.00;99.90;;;;;;5116818;28;20244;-80
2021/08/04 00:33:04;;;;;;;17.07;12.67;;;15.10;99.90;;;;;;5116762;28;20305;-81
2021/08/04 00:35:31;;;;;;;24.87;12.60;;;15.10;99.90;;;;;;5116478;28;20280;-82
2021/08/04 00:37:58;;;;;;;19.37;12.83;;;15.20;99.90;;;;;;5115579;28;20229;-80
2021/08/04 00:40:25;;;;;;;19.67;12.73;;;15.10;99.90;;;;;;5116892;28;20273;-81
2021/08/04 00:42:52;;;;;;;21.90;13.43;;;15.00;99.90;;;;;;5116534;28;20717;-80
2021/08/04 00:45:20;;;;;;;21.20;13.93;;;15.10;99.90;;;;;;5117126;28;20304;-80
2021/08/04 00:47:47;;;;;;;19.53;13.87;;;15.20;99.90;;;;;;5116122;28;20644;-80
2021/08/04 00:50:14;;;;;;;25.63;14.13;;;15.20;99.90;;;;;;5116558;28;20202;-80
2021/08/04 00:52:41;;;;;;;22.17;14.50;;;15.20;99.90;;;;;;5115443;28;20214;-80
2021/08/04 00:55:09;;;;;;;22.73;14.53;;;15.20;99.90;;;;;;5116734;28;20202;-80
2021/08/04 00:57:35;;;;;;;23.90;13.80;;;15.20;99.90;;;;;;5116531;28;20682;-80
2021/08/04 01:00:03;;;;;;;23.23;14.83;;;15.30;99.90;;;;;;5116496;28;20201;-80
2021/08/04 01:02:38;;;;;;;23.03;14.37;;;15.40;99.90;;;;;;5116077;28;20677;-80
2021/08/04 01:05:10;;;;;;;21.03;14.77;;;15.40;99.90;;;;;;5099367;28;20632;-80
2021/08/04 01:07:42;;;;;;;21.60;13.97;;;15.40;99.90;;;;;;5101953;28;20199;-80
2021/08/04 01:10:14;;;;;;;20.93;14.60;;;15.40;99.90;;;;;;5112149;28;20194;-80
2021/08/04 01:12:46;;;;;;;20.83;13.53;;;15.40;99.90;;;;;;5114691;28;20210;-80
2021/08/04 01:15:14;;;;;;;21.13;14.40;;;15.40;99.90;;;;;;5112611;28;20207;-80
2021/08/04 01:17:48;;;;;;;23.27;14.43;;;15.40;99.90;;;;;;5110269;28;20199;-80
2021/08/04 01:20:18;;;;;;;25.37;15.20;;;15.40;99.90;;;;;;5115514;28;20198;-80
2021/08/04 01:23:11;;;;;;;23.90;15.63;;;15.40;99.90;;;;;;5108266;28;20298;-80
2021/08/04 01:25:46;;;;;;;24.97;15.60;;;15.40;99.90;;;;;;5111922;28;20521;-80
2021/08/04 01:28:28;;;;;;;24.43;15.77;;;15.30;99.90;;;;;;5113504;28;20218;-81
2021/08/04 01:31:02;;;;;;;24.77;15.77;;;15.40;99.90;;;;;;5112334;28;20300;-80
2021/08/04 01:33:30;;;;;;;28.53;16.53;;;15.50;99.90;;;;;;5112559;28;20220;-80
2021/08/04 01:35:58;;;;;;;28.67;17.70;;;15.60;99.90;;;;;;5103125;28;20620;-80
2021/08/04 01:38:25;;;;;;;31.13;18.30;;;15.70;99.90;;;;;;5096679;28;20201;-80
2021/08/04 01:40:54;;;;;;;29.60;18.03;;;15.80;99.90;;;;;;5108453;28;20205;-81
2021/08/04 01:43:24;;;;;;;26.83;18.33;;;15.70;99.90;;;;;;5114128;28;20206;-80
2021/08/04 01:45:54;;;;;;;29.80;18.93;;;15.60;99.90;;;;;;5095078;28;20522;-80
2021/08/04 01:48:22;;;;;;;31.47;19.53;;;15.70;99.90;;;;;;5100010;28;20285;-80
2021/08/04 01:50:50;;;;;;;33.63;21.50;;;15.80;99.90;;;;;;5114570;28;20241;-80
2021/08/04 01:53:17;;;;;;;32.87;21.40;;;15.90;99.90;;;;;;5101735;28;20309;-81
2021/08/04 01:55:44;;;;;;;33.83;22.33;;;16.00;99.90;;;;;;5095783;28;20218;-80
2021/08/04 01:58:11;;;;;;;33.27;21.20;;;16.00;99.90;;;;;;5095759;28;20199;-80
2021/08/04 02:00:39;;;;;;;35.30;21.53;;;16.10;99.90;;;;;;5110753;28;20293;-81
2021/08/04 02:03:06;;;;;;;30.73;19.83;;;16.00;99.90;;;;;;5101734;28;20615;-80
2021/08/04 02:05:33;;;;;;;26.93;20.07;;;15.80;99.90;;;;;;5096755;28;20197;-80
2021/08/04 02:08:07;;;;;;;29.60;19.37;;;15.70;99.90;;;;;;5108174;28;20225;-81
2021/08/04 02:10:44;;;;;;;28.97;18.90;;;15.60;99.90;;;;;;5101107;28;20305;-80
2021/08/04 02:13:22;;;;;;;33.53;21.03;;;15.50;99.90;;;;;;5106805;28;20226;-80
2021/08/04 02:15:56;;;;;;;29.43;20.10;;;15.60;99.90;;;;;;5114744;28;20231;-80
2021/08/04 02:18:29;;;;;;;30.43;20.23;;;15.60;99.90;;;;;;5114307;28;20618;-80
2021/08/04 02:21:00;;;;;;;36.20;20.43;;;15.70;99.90;;;;;;5095057;28;20291;-80
2021/08/04 02:23:31;;;;;;;33.43;21.53;;;15.70;99.90;;;;;;5094053;28;20722;-80
2021/08/04 02:26:01;;;;;;;33.87;20.80;;;15.80;99.90;;;;;;5093834;28;20286;-80
2021/08/04 02:28:32;;;;;;;31.30;22.07;;;15.70;99.90;;;;;;5095366;28;20206;-80
2021/08/04 02:31:02;;;;;;;37.20;22.37;;;15.70;99.90;;;;;;5096943;28;20199;-80
2021/08/04 02:33:30;;;;;;;34.70;22.27;;;15.80;99.90;;;;;;5096701;28;20234;-80
2021/08/04 02:35:58;;;;;;;33.23;20.87;;;15.80;99.90;;;;;;5100800;28;20237;-80
2021/08/04 02:38:24;;;;;;;32.27;20.37;;;15.80;99.90;;;;;;5094136;28;20226;-80
2021/08/04 02:40:52;;;;;;;30.13;19.53;;;15.80;99.90;;;;;;5093825;28;20688;-80
2021/08/04 02:43:22;;;;;;;32.03;20.47;;;15.80;99.90;;;;;;5094554;28;20230;-80
2021/08/04 02:45:50;;;;;;;30.57;20.00;;;16.00;99.90;;;;;;5094409;28;20205;-80
2021/08/04 02:48:19;;;;;;;31.93;19.17;;;15.90;99.90;;;;;;5093999;28;20230;-80
2021/08/04 02:50:48;;;;;;;33.13;20.47;;;15.80;99.90;;;;;;5093948;28;20198;-80
2021/08/04 02:53:15;;;;;;;29.10;19.47;;;15.80;99.90;;;;;;5093159;28;20770;-80
2021/08/04 02:55:43;;;;;;;33.43;19.73;;;15.60;99.90;;;;;;5093808;28;20202;-81
2021/08/04 02:58:12;;;;;;;30.97;19.63;;;15.70;99.90;;;;;;5093874;28;20248;-80
2021/08/04 03:00:39;;;;;;;37.57;19.23;;;15.60;99.90;;;;;;5094040;28;20288;-80
2021/08/04 03:03:06;;;;;;;33.80;20.53;;;15.70;99.90;;;;;;5093445;28;20198;-81
2021/08/04 03:05:34;;;;;;;32.90;20.43;;;15.60;99.90;;;;;;5094057;28;20206;-80
2021/08/04 03:08:01;;;;;;;36.90;21.40;;;15.70;99.90;;;;;;5092721;28;20297;-80
2021/08/04 03:10:28;;;;;;;34.33;22.00;;;15.70;99.90;;;;;;5093417;28;20739;-80
2021/08/04 03:12:55;;;;;;;34.27;21.37;;;15.70;99.90;;;;;;5093549;28;20282;-80
2021/08/04 03:15:22;;;;;;;33.47;21.80;;;15.70;99.90;;;;;;5093277;28;20207;-80
2021/08/04 03:17:49;;;;;;;34.53;21.60;;;15.70;99.90;;;;;;5100740;28;20240;-80
2021/08/04 03:20:16;;;;;;;35.33;21.63;;;15.70;99.90;;;;;;5100291;28;20199;-80
2021/08/04 03:22:46;;;;;;;38.77;22.00;;;15.80;99.90;;;;;;5092619;28;20199;-80
2021/08/04 03:25:15;;;;;;;32.37;21.63;;;15.80;99.90;;;;;;5093235;28;20294;-81
2021/08/04 03:27:42;;;;;;;33.57;21.57;;;15.80;99.90;;;;;;5092834;28;20261;-80
2021/08/04 03:30:10;;;;;;;36.30;22.23;;;15.80;99.90;;;;;;5097236;28;20297;-80
2021/08/04 03:32:37;;;;;;;32.53;22.17;;;15.90;99.90;;;;;;5092058;28;20241;-80
2021/08/04 03:35:05;;;;;;;32.47;21.83;;;15.80;99.90;;;;;;5093184;28;20222;-81
2021/08/04 03:37:32;;;;;;;31.10;19.77;;;15.90;99.90;;;;;;5092087;28;20562;-80
2021/08/04 03:40:00;;;;;;;33.00;21.23;;;15.90;99.90;;;;;;5092401;28;20238;-80
2021/08/04 03:42:27;;;;;;;31.57;20.70;;;15.80;99.90;;;;;;5093331;28;20245;-80
2021/08/04 03:44:54;;;;;;;35.03;21.90;;;15.80;99.90;;;;;;5093205;28;20301;-80
2021/08/04 03:47:21;;;;;;;37.90;21.60;;;15.70;99.90;;;;;;5093345;28;20286;-80
2021/08/04 03:49:48;;;;;;;32.27;20.70;;;15.70;99.90;;;;;;5092717;28;20205;-80
2021/08/04 03:52:15;;;;;;;33.87;21.13;;;15.60;99.90;;;;;;5092713;28;20236;-80
2021/08/04 03:54:41;;;;;;;36.30;21.20;;;15.80;99.90;;;;;;5092874;28;20305;-80
2021/08/04 03:57:10;;;;;;;34.87;20.60;;;15.80;99.90;;;;;;5092934;28;20237;-80
2021/08/04 03:59:37;;;;;;;32.17;21.50;;;15.70;99.90;;;;;;5093160;28;20293;-80
2021/08/04 04:02:04;;;;;;;32.47;21.03;;;15.60;99.90;;;;;;5093015;28;20227;-80
2021/08/04 04:04:31;;;;;;;32.50;20.23;;;15.60;99.90;;;;;;5093155;28;20281;-81
2021/08/04 04:06:58;;;;;;;33.07;19.83;;;15.60;99.90;;;;;;5092688;28;20289;-80
2021/08/04 04:09:25;;;;;;;37.30;22.30;;;15.60;99.90;;;;;;5093177;28;20289;-80
2021/08/04 04:11:51;;;;;;;34.20;20.63;;;15.70;99.90;;;;;;5092831;28;20238;-80
2021/08/04 04:14:20;;;;;;;31.67;19.97;;;15.60;99.90;;;;;;5092984;28;20226;-80
2021/08/04 04:16:47;;;;;;;30.87;20.83;;;15.50;99.90;;;;;;5092942;28;20293;-80
2021/08/04 04:19:13;;;;;;;36.10;20.23;;;15.50;99.90;;;;;;5106976;28;20219;-81
2021/08/04 04:21:40;;;;;;;38.13;20.10;;;15.40;99.90;;;;;;5092685;28;20235;-80
2021/08/04 04:24:07;;;;;;;37.87;20.63;;;15.40;99.90;;;;;;5092488;28;20199;-80
2021/08/04 04:26:34;;;;;;;34.53;20.27;;;15.40;99.90;;;;;;5092658;28;20291;-80
2021/08/04 04:29:01;;;;;;;34.03;21.00;;;15.40;99.90;;;;;;5096468;28;20288;-80
2021/08/04 04:31:29;;;;;;;29.00;18.70;;;15.40;99.90;;;;;;5092602;28;20234;-80
2021/08/04 04:33:56;;;;;;;27.87;18.20;;;15.30;99.90;;;;;;5092600;28;20297;-79
2021/08/04 04:36:23;;;;;;;29.90;19.60;;;15.50;99.90;;;;;;5092145;28;20289;-80
2021/08/04 04:38:52;;;;;;;27.90;18.43;;;15.50;99.90;;;;;;5092686;28;20238;-80
2021/08/04 04:41:19;;;;;;;28.83;19.07;;;15.50;99.90;;;;;;5092329;28;20625;-80
2021/08/04 04:43:46;;;;;;;29.60;18.87;;;15.40;99.90;;;;;;5092960;28;20310;-80
2021/08/04 04:46:13;;;;;;;32.37;19.57;;;15.30;99.90;;;;;;5092567;28;20306;-80
2021/08/04 04:48:41;;;;;;;35.10;20.53;;;15.40;99.90;;;;;;5091930;28;20234;-81
2021/08/04 04:51:09;;;;;;;29.70;19.97;;;15.40;99.90;;;;;;5098687;28;20293;-80
2021/08/04 04:53:36;;;;;;;30.03;21.13;;;15.50;99.90;;;;;;5108692;28;20195;-80
2021/08/04 04:56:03;;;;;;;29.50;19.20;;;15.50;99.90;;;;;;5096075;28;20209;-80
2021/08/04 04:58:30;;;;;;;32.13;20.50;;;15.60;99.90;;;;;;5107048;28;20286;-80
2021/08/04 05:00:57;;;;;;;35.67;21.17;;;15.80;99.90;;;;;;5095881;28;20293;-81
2021/08/04 05:03:24;;;;;;;28.60;20.03;;;15.90;99.90;;;;;;5095426;28;20652;-81
2021/08/04 05:05:52;;;;;;;32.33;19.47;;;15.90;99.90;;;;;;5095790;28;20623;-80
2021/08/04 05:08:19;;;;;;;28.83;18.27;;;16.00;99.90;;;;;;5095747;28;20252;-80
2021/08/04 05:10:46;;;;;;;23.50;18.00;;;16.10;99.90;;;;;;5103914;28;20278;-80
2021/08/04 05:13:13;;;;;;;23.40;16.83;;;16.20;99.90;;;;;;5095440;28;20198;-80
2021/08/04 05:15:40;;;;;;;23.93;15.53;;;16.30;99.90;;;;;;5095968;28;20254;-80
2021/08/04 05:18:07;;;;;;;19.50;14.37;;;16.40;99.90;;;;;;5104875;28;20202;-80
2021/08/04 05:20:33;;;;;;;27.23;13.77;;;16.50;99.90;;;;;;5102207;28;20301;-80
2021/08/04 05:23:02;;;;;;;23.13;14.30;;;16.50;99.90;;;;;;5115453;28;20301;-80
2021/08/04 05:25:29;;;;;;;19.27;13.27;;;16.60;99.90;;;;;;5115239;28;20616;-80
2021/08/04 05:27:56;;;;;;;18.93;13.23;;;16.70;99.90;;;;;;5115728;28;20281;-80
2021/08/04 05:30:23;;;;;;;17.63;12.53;;;16.80;99.90;;;;;;5115154;28;20343;-79
2021/08/04 05:32:50;;;;;;;16.37;12.93;;;16.90;99.90;;;;;;5111518;28;20567;-82
2021/08/04 05:35:17;;;;;;;15.20;12.70;;;17.00;99.90;;;;;;5097151;28;20447;-80
2021/08/04 05:37:44;;;;;;;16.57;13.30;;;17.20;99.90;;;;;;5099327;28;20285;-80
2021/08/04 05:40:13;;;;;;;18.63;13.20;;;17.50;99.90;;;;;;5107213;28;20194;-81
2021/08/04 05:42:40;;;;;;;19.37;13.23;;;17.70;99.90;;;;;;5104138;28;20229;-80
2021/08/04 05:45:08;;;;;;;17.00;13.33;;;18.00;99.90;;;;;;5106324;28;20233;-81
2021/08/04 05:47:35;;;;;;;17.30;13.33;;;18.10;99.90;;;;;;5109180;28;20202;-82
2021/08/04 05:50:02;;;;;;;20.90;13.57;;;18.20;99.90;;;;;;5112094;28;20300;-81
2021/08/04 05:52:28;;;;;;;21.67;14.57;;;18.30;99.90;;;;;;5113592;28;20213;-81
2021/08/04 05:54:55;;;;;;;21.03;13.73;;;17.90;99.90;;;;;;5113064;28;20732;-81
2021/08/04 05:57:24;;;;;;;22.00;13.50;;;17.40;99.90;;;;;;5104549;28;20675;-82
2021/08/04 05:59:50;;;;;;;18.50;12.67;;;17.40;99.90;;;;;;5111155;28;20615;-81
2021/08/04 06:02:17;;;;;;;19.13;13.33;;;17.50;99.90;;;;;;5114739;28;20285;-82
2021/08/04 06:04:44;;;;;;;20.17;13.50;;;17.60;99.90;;;;;;5109162;28;20276;-81
2021/08/04 06:07:11;;;;;;;18.47;14.30;;;17.50;99.90;;;;;;5115096;28;20330;-82
2021/08/04 06:09:38;;;;;;;17.23;13.53;;;17.20;99.90;;;;;;5115430;28;20208;-81
2021/08/04 06:12:06;;;;;;;18.67;14.13;;;16.80;99.90;;;;;;5115053;28;20198;-80
2021/08/04 06:14:34;;;;;;;18.90;13.77;;;16.70;99.90;;;;;;5114975;28;20237;-81
2021/08/04 06:17:01;;;;;;;22.20;13.87;;;16.60;99.90;;;;;;5113905;28;20230;-81
2021/08/04 06:19:28;;;;;;;18.67;13.80;;;16.60;99.90;;;;;;5107450;28;20195;-81
2021/08/04 06:21:55;;;;;;;21.33;13.97;;;16.80;99.90;;;;;;5093802;28;20289;-81
2021/08/04 06:24:22;;;;;;;25.27;14.83;;;17.00;99.90;;;;;;5093891;28;20199;-82
2021/08/04 06:26:49;;;;;;;19.77;14.20;;;17.00;99.90;;;;;;5093730;28;20286;-81
2021/08/04 06:29:16;;;;;;;17.13;14.20;;;17.20;99.90;;;;;;5094696;28;20293;-81
2021/08/04 06:31:44;;;;;;;23.80;13.30;;;17.70;99.90;;;;;;5100863;28;20199;-81
2021/08/04 06:34:11;;;;;;;18.93;12.97;;;18.20;99.90;;;;;;5092728;28;20293;-82
2021/08/04 06:36:38;;;;;;;18.57;13.03;;;18.80;99.90;;;;;;5094043;28;20282;-81
2021/08/04 06:39:05;;;;;;;17.70;12.93;;;19.10;99.90;;;;;;5093943;28;20234;-81
2021/08/04 06:41:32;;;;;;;14.83;12.73;;;18.90;99.90;;;;;;5093853;28;20272;-81
2021/08/04 06:43:59;;;;;;;18.70;13.93;;;19.00;99.90;;;;;;5094086;28;20209;-81
2021/08/04 06:46:33;;;;;;;19.53;14.40;;;19.10;99.90;;;;;;5093917;28;20258;-81
2021/08/04 06:49:02;;;;;;;22.37;15.87;;;19.10;99.90;;;;;;5093222;28;20244;-81
2021/08/04 06:51:29;;;;;;;29.23;16.03;;;19.30;99.90;;;;;;5093246;28;20291;-81
2021/08/04 06:53:56;;;;;;;31.63;15.13;;;19.60;99.90;;;;;;5093256;28;20286;-81
2021/08/04 06:56:23;;;;;;;23.07;15.60;;;19.80;99.90;;;;;;5095247;28;20318;-80
2021/08/04 06:58:50;;;;;;;27.07;15.63;;;19.90;99.90;;;;;;5105490;28;20288;-81
2021/08/04 07:01:17;;;;;;;23.07;15.83;;;19.90;99.90;;;;;;5093390;28;20294;-80
2021/08/04 07:03:44;;;;;;;27.23;16.03;;;19.70;99.90;;;;;;5093261;28;20290;-82
2021/08/04 07:06:13;;;;;;;24.53;16.03;;;19.60;99.90;;;;;;5093474;28;20674;-80
2021/08/04 07:08:40;;;;;;;33.07;17.33;;;19.70;99.90;;;;;;5093201;28;20240;-81
2021/08/04 07:11:08;;;;;;;22.47;16.47;;;19.80;99.90;;;;;;5093626;28;20263;-81
2021/08/04 07:13:35;;;;;;;33.60;18.47;;;19.90;99.90;;;;;;5092104;28;20318;-81
2021/08/04 07:16:02;;;;;;;25.90;18.07;;;19.90;99.90;;;;;;5092889;28;20266;-80
2021/08/04 07:18:29;;;;;;;35.47;18.53;;;19.90;99.90;;;;;;5105668;28;20610;-80
2021/08/04 07:20:56;;;;;;;31.73;18.37;;;20.00;99.90;;;;;;5094151;28;20290;-80
2021/08/04 07:23:24;;;;;;;32.70;19.13;;;19.60;99.90;;;;;;5093566;28;20583;-81
2021/08/04 07:25:51;;;;;;;27.53;18.07;;;19.80;99.90;;;;;;5107378;28;20281;-80
2021/08/04 07:28:18;;;;;;;30.60;20.30;;;20.00;99.90;;;;;;5095223;28;20620;-81
2021/08/04 07:30:46;;;;;;;32.87;20.77;;;19.90;99.90;;;;;;5104258;28;20212;-80
2021/08/04 07:33:13;;;;;;;34.23;23.37;;;20.10;99.90;;;;;;5112745;28;20293;-80
2021/08/04 07:35:40;;;;;;;35.67;21.53;;;19.90;99.90;;;;;;5112640;28;20691;-80
2021/08/04 07:38:07;;;;;;;30.80;19.13;;;20.20;99.90;;;;;;5106813;28;20567;-80
2021/08/04 07:40:35;;;;;;;30.77;20.23;;;20.50;99.90;;;;;;5113137;28;20198;-81
2021/08/04 07:43:02;;;;;;;33.50;20.93;;;20.50;99.90;;;;;;5112591;28;20197;-80
2021/08/04 07:45:29;;;;;;;31.03;19.67;;;20.50;99.90;;;;;;5112839;28;20221;-80
2021/08/04 07:47:56;;;;;;;34.83;20.60;;;20.20;99.90;;;;;;5109891;28;20289;-80
2021/08/04 07:50:23;;;;;;;33.03;19.80;;;20.20;99.90;;;;;;5112731;28;20285;-81
2021/08/04 07:52:50;;;;;;;32.13;20.87;;;20.20;99.90;;;;;;5111134;28;20280;-81
2021/08/04 07:55:17;;;;;;;30.47;19.80;;;20.00;99.90;;;;;;5110678;28;20225;-79
2021/08/04 07:57:46;;;;;;;30.53;20.00;;;20.40;99.90;;;;;;5112077;28;20202;-80
2021/08/04 08:00:13;;;;;;;27.70;19.17;;;20.30;99.90;;;;;;5100355;28;20202;-80
2021/08/04 08:02:41;;;;;;;28.88;20.00;;;20.90;99.90;;;;;;5112028;28;20212;-79
2021/08/04 08:05:09;;;;;;;23.98;19.05;;;22.00;99.90;;;;;;5112440;28;20293;-80
2021/08/04 08:07:36;;;;;;;27.20;18.38;;;23.90;99.90;;;;;;5112627;28;20277;-80
2021/08/04 08:10:04;;;;;;;29.02;18.20;;;25.30;99.90;;;;;;5112269;28;20202;-80
2021/08/04 08:12:31;;;;;;;27.27;18.45;;;26.70;99.90;;;;;;5112482;28;20201;-80
2021/08/04 08:14:59;;;;;;;23.42;18.45;;;27.40;99.90;;;;;;5111684;28;20244;-80
2021/08/04 08:17:26;;;;;;;26.80;18.48;;;27.20;99.90;;;;;;5112177;28;20202;-81
2021/08/04 08:19:53;;;;;;;24.17;16.63;;;28.30;99.90;;;;;;5098844;28;20675;-80
2021/08/04 08:22:20;;;;;;;19.67;16.73;;;28.50;99.90;;;;;;5091692;28;20199;-80
2021/08/04 08:24:47;;;;;;;21.50;17.35;;;28.40;99.90;;;;;;5092374;28;20660;-80
2021/08/04 08:27:14;;;;;;;20.38;17.20;;;27.90;99.90;;;;;;5095802;28;20226;-80
2021/08/04 08:29:41;;;;;;;21.40;16.90;;;28.20;99.90;;;;;;5096322;28;20290;-80
2021/08/04 08:32:10;;;;;;;20.77;16.65;;;29.80;99.90;;;;;;5095857;28;20290;-81
2021/08/04 08:34:36;;;;;;;23.10;16.85;;;30.20;99.90;;;;;;5095245;28;20281;-80
2021/08/04 08:37:04;;;;;;;18.92;14.85;;;30.00;99.90;;;;;;5096200;28;20290;-80
2021/08/04 08:39:31;;;;;;;16.90;14.88;;;31.00;99.90;;;;;;5095598;28;20716;-80
2021/08/04 08:41:59;;;;;;;21.38;15.65;;;30.00;99.90;;;;;;5095954;28;20206;-80
2021/08/04 08:44:27;;;;;;;20.38;16.30;;;30.30;99.90;;;;;;5097840;28;20233;-80
2021/08/04 08:46:54;;;;;;;18.63;15.02;;;30.70;99.90;;;;;;5111185;28;20222;-80
2021/08/04 08:49:26;;;;;;;15.18;13.20;;;31.40;99.90;;;;;;5100710;28;20295;-79
2021/08/04 08:51:53;;;;;;;21.38;12.57;;;31.80;99.90;;;;;;5108683;28;20206;-80
2021/08/04 08:54:20;;;;;;;17.23;14.40;;;31.60;99.90;;;;;;5101944;28;20285;-80
2021/08/04 08:56:47;;;;;;;19.30;15.68;;;31.50;99.90;;;;;;5104244;28;20230;-81
2021/08/04 08:59:16;;;;;;;19.23;15.63;;;31.30;99.90;;;;;;5114767;28;20570;-79
2021/08/04 09:01:43;;;;;;;20.55;15.07;;;31.20;99.90;;;;;;5113699;28;20204;-79
2021/08/04 09:04:12;;;;;;;24.25;15.77;;;32.20;99.90;;;;;;5105652;28;20197;-80
2021/08/04 09:06:46;;;;;;;18.60;15.18;;;31.70;99.90;;;;;;5111093;28;20204;-78
2021/08/04 09:09:21;;;;;;;16.98;12.82;;;32.20;99.90;;;;;;5102976;28;20577;-78
2021/08/04 09:11:50;;;;;;;14.82;13.35;;;33.60;99.90;;;;;;5106898;28;20285;-79
2021/08/04 09:14:25;;;;;;;14.65;13.02;;;32.50;99.90;;;;;;5107495;28;20294;-77
2021/08/04 09:16:59;;;;;;;14.82;12.85;;;31.50;99.90;;;;;;5112816;28;20221;-80
2021/08/04 09:19:26;;;;;;;15.93;12.55;;;31.00;99.90;;;;;;5100740;28;20223;-79
2021/08/04 09:22:13;;;;;;;13.90;11.10;;;30.90;99.90;;;;;;5094912;28;20198;-80
2021/08/04 09:25:01;;;;;;;14.32;10.70;;;31.10;99.90;;;;;;5095029;28;20651;-79
2021/08/04 09:27:48;;;;;;;12.73;8.48;;;31.00;99.90;;;;;;5094510;28;20294;-80
2021/08/04 09:30:19;;;;;;;11.02;8.23;;;31.70;99.90;;;;;;5102984;28;20206;-80
2021/08/04 09:32:46;;;;;;;10.95;8.30;;;31.40;99.90;;;;;;5100244;28;20282;-80
2021/08/04 09:35:16;;;;;;;13.70;9.40;;;30.40;99.90;;;;;;5103055;28;20305;-81
2021/08/04 09:37:46;;;;;;;12.00;9.57;;;29.10;99.90;;;;;;5094158;28;20199;-80
2021/08/04 09:40:15;;;;;;;12.77;10.02;;;27.80;99.90;;;;;;5103919;28;20541;-81
2021/08/04 09:42:48;;;;;;;11.23;8.70;;;27.00;99.90;;;;;;5106403;28;20285;-80
2021/08/04 17:05:54;;;;;;;11.30;9.80;;;20.00;99.90;;;;;;5101309;27;20951;-81
2021/08/04 17:08:21;;;;;;;13.10;10.03;;;19.90;99.90;;;;;;5051195;27;20282;-82
2021/08/04 17:10:49;;;;;;;10.63;9.50;;;19.90;99.90;;;;;;5054782;27;20717;-83
2021/08/04 17:13:16;;;;;;;12.53;10.50;;;20.00;99.90;;;;;;5058315;27;20206;-81
2021/08/04 17:15:43;;;;;;;12.77;10.87;;;20.00;99.90;;;;;;5078433;27;20606;-81
2021/08/04 17:18:10;;;;;;;15.27;10.10;;;20.10;99.90;;;;;;5101833;27;20196;-80
2021/08/04 17:20:37;;;;;;;14.33;10.47;;;20.20;99.90;;;;;;5127081;27;20213;-81
2021/08/04 17:23:06;;;;;;;12.30;10.57;;;20.20;99.90;;;;;;5047725;27;20645;-82
2021/08/04 17:25:33;;;;;;;13.87;10.20;;;20.10;99.90;;;;;;5102797;27;20197;-78
2021/08/04 17:28:00;;;;;;;11.67;10.37;;;20.30;99.90;;;;;;5053196;27;20207;-83
2021/08/04 17:30:26;;;;;;;12.73;10.13;;;20.40;99.90;;;;;;5107348;27;20637;-79
2021/08/04 17:32:54;;;;;;;11.57;10.47;;;20.30;99.90;;;;;;5052122;27;20204;-82
2021/08/04 17:35:21;;;;;;;12.23;9.83;;;20.20;99.90;;;;;;5059659;27;20225;-82
2021/08/04 17:37:48;;;;;;;12.20;9.57;;;20.40;99.90;;;;;;5075307;27;20206;-82
2021/08/04 17:40:16;;;;;;;11.73;9.70;;;20.30;99.90;;;;;;5056843;27;20315;-83
2021/08/04 17:42:43;;;;;;;10.07;9.07;;;20.20;99.90;;;;;;5051652;27;20247;-84
2021/08/04 17:45:11;;;;;;;10.57;9.50;;;20.30;99.90;;;;;;5105985;27;20200;-82
2021/08/04 17:47:38;;;;;;;10.17;9.17;;;20.00;99.90;;;;;;5105802;27;20221;-81
2021/08/04 17:50:06;;;;;;;10.03;9.03;;;20.00;99.90;;;;;;5067751;27;20287;-83
2021/08/04 17:52:33;;;;;;;9.90;8.90;;;20.00;99.90;;;;;;5073592;27;20196;-83
2021/08/04 17:55:00;;;;;;;13.07;9.27;;;20.10;99.90;;;;;;5048351;27;20309;-82
2021/08/04 17:57:29;;;;;;;10.70;9.10;;;19.90;99.90;;;;;;5067839;27;20284;-83
2021/08/04 17:59:55;;;;;;;14.70;9.53;;;20.00;99.90;;;;;;5079382;27;20671;-82
2021/08/04 18:02:22;;;;;;;10.83;9.23;;;19.90;99.90;;;;;;5067775;27;20200;-83
2021/08/04 18:04:49;;;;;;;13.50;10.03;;;19.80;99.90;;;;;;5046964;27;20291;-82
2021/08/04 18:07:17;;;;;;;11.30;9.20;;;19.80;99.90;;;;;;5045416;27;20284;-83
2021/08/04 18:09:44;;;;;;;12.17;9.73;;;19.80;99.90;;;;;;5049385;27;20646;-82
2021/08/04 18:12:11;;;;;;;12.33;10.53;;;19.80;99.90;;;;;;5054800;27;20220;-82
2021/08/04 18:14:39;;;;;;;10.40;9.37;;;19.50;99.90;;;;;;5051782;27;20307;-83
2021/08/04 18:17:06;;;;;;;13.37;9.87;;;19.50;99.90;;;;;;5042045;27;20284;-84
2021/08/04 18:19:34;;;;;;;9.97;9.00;;;19.70;99.90;;;;;;5034400;27;20200;-82
2021/08/04 18:22:01;;;;;;;10.20;9.20;;;19.90;99.90;;;;;;5031369;27;20209;-82
2021/08/04 18:24:28;;;;;;;12.77;9.40;;;19.80;99.90;;;;;;5032320;27;20201;-82
2021/08/04 18:26:56;;;;;;;10.00;8.57;;;20.00;99.90;;;;;;5033297;27;20652;-83
2021/08/04 18:29:23;;;;;;;9.57;8.57;;;20.10;99.90;;;;;;5031588;28;20287;-81
2021/08/04 18:31:52;;;;;;;12.57;8.63;;;20.10;99.90;;;;;;5030918;28;20250;-79
2021/08/04 18:34:19;;;;;;;12.40;9.37;;;20.00;99.90;;;;;;5029377;28;21437;-78
2021/08/04 18:36:46;;;;;;;11.20;8.83;;;20.00;99.90;;;;;;5032242;28;20273;-79
2021/08/04 18:39:13;;;;;;;12.30;10.07;;;20.00;99.90;;;;;;5039626;27;20208;-81
2021/08/04 18:41:40;;;;;;;11.10;9.20;;;20.00;99.90;;;;;;5037713;28;20258;-82
2021/08/04 18:44:07;;;;;;;10.50;9.50;;;20.00;99.90;;;;;;5042361;27;20200;-81
2021/08/04 18:46:34;;;;;;;10.73;9.63;;;20.00;99.90;;;;;;5031687;28;20276;-82
2021/08/04 18:49:04;;;;;;;12.53;10.63;;;19.90;99.90;;;;;;5035710;28;20279;-80
2021/08/04 18:51:31;;;;;;;12.33;10.23;;;19.90;99.90;;;;;;5035722;28;20247;-82
2021/08/04 18:53:58;;;;;;;14.20;9.47;;;19.90;99.90;;;;;;5034489;28;20638;-82
2021/08/04 18:56:25;;;;;;;11.10;9.37;;;20.00;99.90;;;;;;5036529;28;20652;-81
2021/08/04 18:58:52;;;;;;;10.73;8.87;;;20.00;99.90;;;;;;5034069;28;20654;-81
2021/08/04 19:01:19;;;;;;;9.03;8.23;;;19.90;99.90;;;;;;5034412;28;20734;-82
2021/08/04 19:03:46;;;;;;;11.67;8.73;;;19.90;99.90;;;;;;5031943;27;20589;-82
2021/08/04 19:06:14;;;;;;;11.00;9.50;;;19.80;99.90;;;;;;5032533;28;21001;-79
2021/08/04 19:08:41;;;;;;;17.17;14.40;;;19.70;99.90;;;;;;5031988;28;20224;-80
2021/08/04 19:11:09;;;;;;;19.47;16.10;;;19.60;99.90;;;;;;5033775;28;20196;-81
2021/08/04 19:13:37;;;;;;;16.20;14.47;;;19.20;99.90;;;;;;5032171;27;20229;-78
2021/08/04 19:16:04;;;;;;;21.67;16.37;;;19.20;99.90;;;;;;5032747;28;20263;-80
2021/08/04 19:18:31;;;;;;;25.27;19.80;;;19.10;99.90;;;;;;5018663;28;20289;-79
2021/08/04 19:20:58;;;;;;;25.70;21.50;;;18.90;99.90;;;;;;5036605;28;20281;-79
2021/08/04 19:23:26;;;;;;;28.30;23.27;;;18.90;99.90;;;;;;5017297;27;20201;-81
2021/08/04 19:25:53;;;;;;;29.00;22.20;;;18.90;99.90;;;;;;5024001;28;20589;-80
2021/08/04 19:28:20;;;;;;;29.23;23.20;;;18.80;99.90;;;;;;5024587;28;20228;-82
2021/08/04 19:30:47;;;;;;;32.63;24.83;;;18.70;99.90;;;;;;5033442;27;20297;-81
2021/08/04 19:33:17;;;;;;;30.73;25.20;;;18.60;99.90;;;;;;5042315;27;20196;-79
2021/08/04 19:35:44;;;;;;;38.17;27.07;;;18.50;99.90;;;;;;5030543;28;20229;-79
2021/08/04 19:38:11;;;;;;;40.37;27.77;;;18.50;99.90;;;;;;5030942;28;20267;-79
2021/08/04 19:40:39;;;;;;;38.17;28.87;;;18.40;99.90;;;;;;5050831;27;20201;-79
2021/08/04 19:43:14;;;;;;;36.80;28.23;;;18.40;99.90;;;;;;5038562;27;20293;-80
2021/08/04 19:45:41;;;;;;;35.60;28.10;;;18.30;99.90;;;;;;5060856;27;20196;-79
2021/08/04 19:48:08;;;;;;;39.80;28.90;;;18.20;99.90;;;;;;5052471;27;20209;-80
2021/08/04 19:50:35;;;;;;;36.33;29.10;;;18.20;99.90;;;;;;5030941;27;20232;-79
2021/08/04 19:53:04;;;;;;;37.83;28.23;;;18.20;99.90;;;;;;5059486;27;20309;-80